PWSweather.com
Personal Weather Stations
Station Observations
PWSLORIS
The Farm At Fox Bay, Loris, SC 29569

The Farm At Fox BayLoris, SC 29569

Lat: 34.067097, Lon: -78.86907

Elevation: 108

Station Type: Davis Vantage Pro2 with 24 hr. FARS and solar

http://www.lorisweather.com

High Low Average
Temperature 91.8°F33.2°C 72.8°F22.7°C 80.9°F27.2°C
Dew Point 81.0°F27.2°C 72.2°F22.3°C 76.7°F24.8°C
Winds 4.6 mph 7.4 kmh Calm Calm Calm SSWCalm SSW
Wind Gusts 6.9 mph11.1 kmh -- 1.0 mph1.6 kmh
Humidity 99% 63% 88%
Pressure 30.07 in1018.3 mb 29.98 in1015.2 mb -
Precipitation 0.01 in0.3 mm - -
Hour Temp Dew Point Humidity Winds Wind Gusts Pressure Precip Precip Rate Daily Precip Total
12:00 AM 73.7°F23.2°C 73.1°F22.8°C 98% Calm Calm -- 29.99 in1015.6 mb - 0.00 in0.0 mm 0.00 in0.0 mm
12:15 AM 73.8°F23.2°C 73.2°F22.9°C 98% Calm Calm -- 29.99 in1015.6 mb - 0.00 in0.0 mm 0.00 in0.0 mm
12:30 AM 73.9°F23.3°C 73.3°F22.9°C 98% Calm Calm -- 29.99 in1015.6 mb - 0.00 in0.0 mm 0.00 in0.0 mm
12:45 AM 74.0°F23.3°C 73.4°F23.0°C 98% Calm Calm -- 29.99 in1015.6 mb - 0.00 in0.0 mm 0.00 in0.0 mm
01:00 AM 74.0°F23.3°C 73.4°F23.0°C 98% Calm Calm -- 29.99 in1015.6 mb - 0.00 in0.0 mm 0.00 in0.0 mm
01:15 AM 74.0°F23.3°C 73.4°F23.0°C 98% Calm Calm -- 30.00 in1015.9 mb - 0.00 in0.0 mm 0.00 in0.0 mm
01:30 AM 73.9°F23.3°C 73.3°F22.9°C 98% Calm Calm -- 29.99 in1015.6 mb - 0.00 in0.0 mm 0.00 in0.0 mm
01:45 AM 73.7°F23.2°C 73.1°F22.8°C 98% Calm Calm -- 29.98 in1015.2 mb - 0.00 in0.0 mm 0.00 in0.0 mm
02:00 AM 73.5°F23.1°C 72.9°F22.7°C 98% Calm Calm -- 29.99 in1015.6 mb - 0.00 in0.0 mm 0.00 in0.0 mm
02:15 AM 73.5°F23.1°C 72.9°F22.7°C 98% Calm Calm -- 29.99 in1015.6 mb - 0.00 in0.0 mm 0.00 in0.0 mm
02:30 AM 73.7°F23.2°C 73.1°F22.8°C 98% Calm Calm -- 29.99 in1015.6 mb - 0.00 in0.0 mm 0.00 in0.0 mm
02:45 AM 73.7°F23.2°C 73.1°F22.8°C 98% Calm Calm -- 29.99 in1015.6 mb - 0.00 in0.0 mm 0.00 in0.0 mm
03:00 AM 73.5°F23.1°C 72.9°F22.7°C 98% Calm Calm -- 29.99 in1015.6 mb - 0.01 in0.3 mm 0.01 in0.3 mm
03:15 AM 73.5°F23.1°C 72.9°F22.7°C 98% Calm Calm -- 30.00 in1015.9 mb - 0.00 in0.0 mm 0.01 in0.3 mm
03:30 AM 73.3°F22.9°C 72.7°F22.6°C 98% Calm Calm -- 29.99 in1015.6 mb - 0.00 in0.0 mm 0.01 in0.3 mm
03:45 AM 73.1°F22.8°C 72.5°F22.5°C 98% Calm Calm -- 29.99 in1015.6 mb - 0.00 in0.0 mm 0.01 in0.3 mm
04:00 AM 73.1°F22.8°C 72.5°F22.5°C 98% Calm Calm -- 30.00 in1015.9 mb - 0.00 in0.0 mm 0.01 in0.3 mm
04:15 AM 73.1°F22.8°C 72.5°F22.5°C 98% Calm Calm -- 30.00 in1015.9 mb - 0.00 in0.0 mm 0.01 in0.3 mm
04:30 AM 73.1°F22.8°C 72.5°F22.5°C 98% Calm Calm -- 30.00 in1015.9 mb - 0.00 in0.0 mm 0.01 in0.3 mm
04:45 AM 73.1°F22.8°C 72.5°F22.5°C 98% Calm Calm -- 30.00 in1015.9 mb - 0.00 in0.0 mm 0.01 in0.3 mm
05:00 AM 73.0°F22.8°C 72.4°F22.4°C 98% Calm Calm -- 30.01 in1016.3 mb - 0.00 in0.0 mm 0.01 in0.3 mm
05:15 AM 72.9°F22.7°C 72.3°F22.4°C 98% Calm Calm -- 30.01 in1016.3 mb - 0.00 in0.0 mm 0.01 in0.3 mm
05:30 AM 72.9°F22.7°C 72.3°F22.4°C 98% Calm Calm -- 30.01 in1016.3 mb - 0.00 in0.0 mm 0.01 in0.3 mm
05:45 AM 72.8°F22.7°C 72.2°F22.3°C 98% Calm Calm -- 30.01 in1016.3 mb - 0.00 in0.0 mm 0.01 in0.3 mm
06:00 AM 73.1°F22.8°C 72.8°F22.7°C 99% Calm Calm -- 30.02 in1016.6 mb - 0.00 in0.0 mm 0.01 in0.3 mm
06:15 AM 73.9°F23.3°C 73.6°F23.1°C 99% Calm Calm -- 30.02 in1016.6 mb - 0.00 in0.0 mm 0.01 in0.3 mm
06:30 AM 75.0°F23.9°C 74.7°F23.7°C 99% Calm Calm -- 30.02 in1016.6 mb - 0.00 in0.0 mm 0.01 in0.3 mm
06:45 AM 75.7°F24.3°C 75.1°F23.9°C 98% Calm Calm -- 30.03 in1016.9 mb - 0.00 in0.0 mm 0.01 in0.3 mm
07:00 AM 76.4°F24.7°C 75.8°F24.3°C 98% Calm Calm -- 30.04 in1017.3 mb - 0.00 in0.0 mm 0.01 in0.3 mm
07:15 AM 76.5°F24.7°C 75.9°F24.4°C 98% Calm Calm -- 30.04 in1017.3 mb - 0.00 in0.0 mm 0.01 in0.3 mm
07:30 AM 76.9°F24.9°C 76.0°F24.4°C 97% Calm Calm -- 30.04 in1017.3 mb - 0.00 in0.0 mm 0.01 in0.3 mm
07:45 AM 78.0°F25.6°C 76.5°F24.7°C 95% Calm Calm -- 30.04 in1017.3 mb - 0.00 in0.0 mm 0.01 in0.3 mm
08:00 AM 79.1°F26.2°C 76.9°F24.9°C 93% Calm Calm -- 30.04 in1017.3 mb - 0.00 in0.0 mm 0.01 in0.3 mm
08:15 AM 80.0°F26.7°C 77.1°F25.1°C 91% Calm Calm -- 30.04 in1017.3 mb - 0.00 in0.0 mm 0.01 in0.3 mm
08:30 AM 80.8°F27.1°C 77.3°F25.2°C 89% Calm Calm 2.3 mph3.7 kmh 30.04 in1017.3 mb - 0.00 in0.0 mm 0.01 in0.3 mm
08:45 AM 80.3°F26.8°C 76.8°F24.9°C 89% Calm Calm -- 30.04 in1017.3 mb - 0.00 in0.0 mm 0.01 in0.3 mm
09:00 AM 80.4°F26.9°C 77.8°F25.4°C 92% Calm Calm -- 30.04 in1017.3 mb - 0.00 in0.0 mm 0.01 in0.3 mm
09:15 AM 81.5°F27.5°C 77.6°F25.3°C 88% Calm Calm -- 30.05 in1017.6 mb - 0.00 in0.0 mm 0.01 in0.3 mm
09:30 AM 82.7°F28.2°C 78.1°F25.6°C 86% Calm Calm -- 30.05 in1017.6 mb - 0.00 in0.0 mm 0.01 in0.3 mm
09:45 AM 82.8°F28.2°C 78.9°F26.1°C 88% Calm Calm -- 30.05 in1017.6 mb - 0.00 in0.0 mm 0.01 in0.3 mm
10:00 AM 83.4°F28.6°C 78.5°F25.8°C 85% Calm Calm -- 30.05 in1017.6 mb - 0.00 in0.0 mm 0.01 in0.3 mm
10:15 AM 84.0°F28.9°C 79.0°F26.1°C 85% Calm Calm -- 30.04 in1017.3 mb - 0.00 in0.0 mm 0.01 in0.3 mm
10:30 AM 85.5°F29.7°C 79.8°F26.6°C 83% 1.2 mph NNW1.9 kmh NNW 3.5 mph5.6 kmh 30.04 in1017.3 mb - 0.00 in0.0 mm 0.01 in0.3 mm
10:45 AM 85.7°F29.8°C 79.5°F26.4°C 82% Calm Calm -- 30.04 in1017.3 mb - 0.00 in0.0 mm 0.01 in0.3 mm
11:00 AM 86.5°F30.3°C 79.2°F26.2°C 79% Calm Calm -- 30.04 in1017.3 mb - 0.00 in0.0 mm 0.01 in0.3 mm
11:15 AM 86.7°F30.4°C 79.8°F26.6°C 80% 1.2 mph NW1.9 kmh NW -- 30.04 in1017.3 mb - 0.00 in0.0 mm 0.01 in0.3 mm
11:30 AM 87.7°F30.9°C 80.4°F26.9°C 79% 1.2 mph N1.9 kmh N 3.5 mph5.6 kmh 30.04 in1017.3 mb - 0.00 in0.0 mm 0.01 in0.3 mm
11:45 AM 87.8°F31.0°C 80.1°F26.7°C 78% 2.3 mph WNW3.7 kmh WNW 4.6 mph7.4 kmh 30.04 in1017.3 mb - 0.00 in0.0 mm 0.01 in0.3 mm
12:00 PM 88.1°F31.2°C 79.6°F26.4°C 76% 1.2 mph NNW1.9 kmh NNW 3.5 mph5.6 kmh 30.04 in1017.3 mb - 0.00 in0.0 mm 0.01 in0.3 mm
12:15 PM 87.7°F30.9°C 80.3°F26.8°C 79% 1.2 mph S1.9 kmh S 2.3 mph3.7 kmh 30.04 in1017.3 mb - 0.00 in0.0 mm 0.01 in0.3 mm
12:30 PM 88.4°F31.3°C 81.0°F27.2°C 79% Calm Calm 2.3 mph3.7 kmh 30.04 in1017.3 mb - 0.00 in0.0 mm 0.01 in0.3 mm
12:45 PM 90.0°F32.2°C 80.1°F26.7°C 73% 3.5 mph NE5.6 kmh NE 3.5 mph5.6 kmh 30.03 in1016.9 mb - 0.00 in0.0 mm 0.01 in0.3 mm
01:00 PM 90.4°F32.4°C 80.6°F27.0°C 73% 2.3 mph NW3.7 kmh NW 4.6 mph7.4 kmh 30.03 in1016.9 mb - 0.00 in0.0 mm 0.01 in0.3 mm
01:15 PM 90.4°F32.4°C 79.3°F26.3°C 70% 2.3 mph WNW3.7 kmh WNW 3.5 mph5.6 kmh 30.03 in1016.9 mb - 0.00 in0.0 mm 0.01 in0.3 mm
01:30 PM 90.0°F32.2°C 78.9°F26.1°C 70% 1.2 mph NNW1.9 kmh NNW 1.2 mph1.9 kmh 30.03 in1016.9 mb - 0.00 in0.0 mm 0.01 in0.3 mm
01:45 PM 91.0°F32.8°C 79.4°F26.3°C 69% 1.2 mph E1.9 kmh E 3.5 mph5.6 kmh 30.03 in1016.9 mb - 0.00 in0.0 mm 0.01 in0.3 mm
02:00 PM 90.0°F32.2°C 78.9°F26.1°C 70% 1.2 mph SE1.9 kmh SE 3.5 mph5.6 kmh 30.02 in1016.6 mb - 0.00 in0.0 mm 0.01 in0.3 mm
02:15 PM 89.8°F32.1°C 79.6°F26.4°C 72% Calm Calm 1.2 mph1.9 kmh 30.02 in1016.6 mb - 0.00 in0.0 mm 0.01 in0.3 mm
02:30 PM 89.6°F32.0°C 79.8°F26.6°C 73% Calm Calm -- 30.02 in1016.6 mb - 0.00 in0.0 mm 0.01 in0.3 mm
02:45 PM 91.4°F33.0°C 78.0°F25.6°C 65% 2.3 mph NW3.7 kmh NW 3.5 mph5.6 kmh 30.02 in1016.6 mb - 0.00 in0.0 mm 0.01 in0.3 mm
03:00 PM 91.8°F33.2°C 79.7°F26.5°C 68% 1.2 mph SSE1.9 kmh SSE 1.2 mph1.9 kmh 30.01 in1016.3 mb - 0.00 in0.0 mm 0.01 in0.3 mm
03:15 PM 91.2°F32.9°C 76.8°F24.9°C 63% Calm Calm -- 30.01 in1016.3 mb - 0.00 in0.0 mm 0.01 in0.3 mm
03:30 PM 89.0°F31.7°C 79.2°F26.2°C 73% Calm Calm -- 30.01 in1016.3 mb - 0.00 in0.0 mm 0.01 in0.3 mm
03:45 PM 88.3°F31.3°C 79.0°F26.1°C 74% Calm Calm 3.5 mph5.6 kmh 30.01 in1016.3 mb - 0.00 in0.0 mm 0.01 in0.3 mm
04:00 PM 86.1°F30.1°C 77.7°F25.4°C 76% Calm Calm -- 30.01 in1016.3 mb - 0.00 in0.0 mm 0.01 in0.3 mm
04:15 PM 87.0°F30.6°C 76.5°F24.7°C 71% Calm Calm -- 30.01 in1016.3 mb - 0.00 in0.0 mm 0.01 in0.3 mm
04:30 PM 87.9°F31.1°C 76.5°F24.7°C 69% Calm Calm -- 30.00 in1015.9 mb - 0.00 in0.0 mm 0.01 in0.3 mm
04:45 PM 89.0°F31.7°C 78.0°F25.6°C 70% Calm Calm -- 30.00 in1015.9 mb - 0.00 in0.0 mm 0.01 in0.3 mm
05:00 PM 88.6°F31.4°C 77.1°F25.1°C 69% Calm Calm -- 30.00 in1015.9 mb - 0.00 in0.0 mm 0.01 in0.3 mm
05:15 PM 88.6°F31.4°C 77.1°F25.1°C 69% 4.6 mph SSE7.4 kmh SSE 5.8 mph9.3 kmh 30.00 in1015.9 mb - 0.00 in0.0 mm 0.01 in0.3 mm
05:30 PM 87.1°F30.6°C 77.0°F25.0°C 72% 3.5 mph S5.6 kmh S 3.5 mph5.6 kmh 30.01 in1016.3 mb - 0.00 in0.0 mm 0.01 in0.3 mm
05:45 PM 86.6°F30.3°C 78.2°F25.7°C 76% 4.6 mph S7.4 kmh S 6.9 mph11.1 kmh 30.01 in1016.3 mb - 0.00 in0.0 mm 0.01 in0.3 mm
06:00 PM 85.6°F29.8°C 78.0°F25.6°C 78% 4.6 mph S7.4 kmh S 6.9 mph11.1 kmh 30.02 in1016.6 mb - 0.00 in0.0 mm 0.01 in0.3 mm
06:15 PM 84.7°F29.3°C 78.2°F25.7°C 81% 2.3 mph S3.7 kmh S 3.5 mph5.6 kmh 30.02 in1016.6 mb - 0.00 in0.0 mm 0.01 in0.3 mm
06:30 PM 83.7°F28.7°C 78.4°F25.8°C 84% Calm Calm -- 30.02 in1016.6 mb - 0.00 in0.0 mm 0.01 in0.3 mm
06:45 PM 83.1°F28.4°C 78.5°F25.8°C 86% Calm Calm -- 30.04 in1017.3 mb - 0.00 in0.0 mm 0.01 in0.3 mm
07:00 PM 82.2°F27.9°C 78.3°F25.7°C 88% Calm Calm -- 30.04 in1017.3 mb - 0.00 in0.0 mm 0.01 in0.3 mm
07:15 PM 81.3°F27.4°C 78.1°F25.6°C 90% Calm Calm -- 30.04 in1017.3 mb - 0.00 in0.0 mm 0.01 in0.3 mm
07:30 PM 80.8°F27.1°C 77.9°F25.5°C 91% Calm Calm -- 30.04 in1017.3 mb - 0.00 in0.0 mm 0.01 in0.3 mm
07:45 PM 80.8°F27.1°C 78.3°F25.7°C 92% Calm Calm -- 30.04 in1017.3 mb - 0.00 in0.0 mm 0.01 in0.3 mm
08:00 PM 80.4°F26.9°C 78.1°F25.6°C 93% Calm Calm -- 30.04 in1017.3 mb - 0.00 in0.0 mm 0.01 in0.3 mm
08:15 PM 80.2°F26.8°C 78.3°F25.7°C 94% 1.2 mph ENE1.9 kmh ENE -- 30.05 in1017.6 mb - 0.00 in0.0 mm 0.01 in0.3 mm
08:30 PM 80.3°F26.8°C 78.4°F25.8°C 94% Calm Calm -- 30.05 in1017.6 mb - 0.00 in0.0 mm 0.01 in0.3 mm
08:45 PM 79.8°F26.6°C 78.0°F25.6°C 94% Calm Calm -- 30.05 in1017.6 mb - 0.00 in0.0 mm 0.01 in0.3 mm
09:00 PM 79.7°F26.5°C 78.2°F25.7°C 95% Calm Calm -- 30.05 in1017.6 mb - 0.00 in0.0 mm 0.01 in0.3 mm
09:15 PM 79.2°F26.2°C 77.6°F25.3°C 95% Calm Calm -- 30.05 in1017.6 mb - 0.00 in0.0 mm 0.01 in0.3 mm
09:30 PM 79.2°F26.2°C 78.0°F25.6°C 96% Calm Calm -- 30.05 in1017.6 mb - 0.00 in0.0 mm 0.01 in0.3 mm
09:45 PM 78.9°F26.1°C 77.7°F25.4°C 96% Calm Calm -- 30.06 in1017.9 mb - 0.00 in0.0 mm 0.01 in0.3 mm
10:00 PM 78.9°F26.1°C 77.6°F25.3°C 96% Calm Calm -- 30.07 in1018.3 mb - 0.00 in0.0 mm 0.01 in0.3 mm
10:15 PM 78.6°F25.9°C 77.4°F25.2°C 96% Calm Calm -- 30.07 in1018.3 mb - 0.00 in0.0 mm 0.01 in0.3 mm
10:30 PM 78.4°F25.8°C 77.5°F25.3°C 97% Calm Calm -- 30.06 in1017.9 mb - 0.00 in0.0 mm 0.01 in0.3 mm
10:45 PM 78.2°F25.7°C 77.3°F25.2°C 97% Calm Calm -- 30.06 in1017.9 mb - 0.00 in0.0 mm 0.01 in0.3 mm
11:00 PM 78.2°F25.7°C 77.3°F25.2°C 97% Calm Calm -- 30.07 in1018.3 mb - 0.00 in0.0 mm 0.01 in0.3 mm
11:15 PM 78.5°F25.8°C 77.6°F25.3°C 97% Calm Calm -- 30.07 in1018.3 mb - 0.00 in0.0 mm 0.01 in0.3 mm
11:30 PM 78.4°F25.8°C 77.4°F25.2°C 97% Calm Calm -- 30.07 in1018.3 mb - 0.00 in0.0 mm 0.01 in0.3 mm
11:45 PM 78.2°F25.7°C 77.3°F25.2°C 97% Calm Calm -- 30.06 in1017.9 mb - 0.00 in0.0 mm 0.01 in0.3 mm